Time;durP1;ratioP1;P1;durP2;ratioP2;P2;SDS_P1;SDS_P2;PMS_P1;PMS_P2;Temp;Humidity;BMP_temperature;BMP_pressure;BME280_temperature;BME280_humidity;BME280_pressure;Samples;Min_cycle;Max_cycle;Signal;HPM_P1;HPM_P2
2023/12/12 04:32:12;;;;;;;;;;;;;;;8.74;95.58;100306.76;106473;1251;72724;-84
2023/12/12 04:34:40;;;;;;;;;;;;;;;8.62;96.40;100308.05;106373;1251;61820;-84
2023/12/12 04:37:13;;;;;;;;;;;;;;;8.59;96.94;100302.87;106594;1251;60965;-84
2023/12/12 04:39:47;;;;;;;;;;;;;;;8.50;97.54;100308.73;106453;1251;74650;-81
2023/12/12 04:42:21;;;;;;;;;;;;;;;8.49;97.65;100307.21;106425;1251;68399;-84
2023/12/12 04:44:48;;;;;;;;;;;;;;;8.50;97.78;100307.48;106419;1251;71450;-81
2023/12/12 04:47:22;;;;;;;;;;;;;;;8.62;96.65;100305.70;106509;1254;61244;-84
2023/12/12 04:49:56;;;;;;;;;;;;;;;8.66;95.99;100302.72;106461;1251;61284;-84
2023/12/12 04:52:30;;;;;;;;;;;;;;;8.66;95.66;100301.85;106609;1255;74611;-81
2023/12/12 04:54:58;;;;;;;;;;;;;;;8.56;96.18;100299.16;106589;1256;67116;-81
2023/12/12 04:57:32;;;;;;;;;;;;;;;8.55;96.28;100296.00;106499;1254;70408;-81
2023/12/12 05:00:13;;;;;;;;;;;;;;;8.61;96.05;100295.79;106349;1251;61418;-80
2023/12/12 05:02:47;;;;;;;;;;;;;;;8.63;95.70;100299.56;106529;1253;60015;-81
2023/12/12 05:05:15;;;;;;;;;;;;;;;8.55;96.26;100298.39;106581;1256;73354;-84
2023/12/12 05:07:48;;;;;;;;;;;;;;;8.35;97.51;100303.34;106483;1251;69488;-84
2023/12/12 05:10:22;;;;;;;;;;;;;;;8.35;97.66;100304.59;106380;1251;71084;-84
2023/12/12 05:12:50;;;;;;;;;;;;;;;8.22;98.47;100305.84;106407;1251;61269;-84
2023/12/12 05:15:24;;;;;;;;;;;;;;;8.22;98.55;100304.27;106489;1254;61235;-84
2023/12/12 05:17:57;;;;;;;;;;;;;;;8.21;98.69;100306.44;106490;1256;73453;-83
2023/12/12 05:20:31;;;;;;;;;;;;;;;8.25;98.30;100307.66;106506;1251;68651;-81
2023/12/12 05:22:59;;;;;;;;;;;;;;;8.34;97.41;100310.41;106555;1251;72740;-84
2023/12/12 05:25:33;;;;;;;;;;;;;;;8.32;97.52;100306.70;106262;1251;61320;-83
2023/12/12 05:28:06;;;;;;;;;;;;;;;8.31;97.27;100308.16;106406;1251;61336;-80
2023/12/12 05:30:40;;;;;;;;;;;;;;;8.33;96.86;100312.27;106369;1256;74664;-83
2023/12/12 05:33:08;;;;;;;;;;;;;;;8.28;96.86;100317.70;106500;1251;68452;-80
2023/12/12 05:35:42;;;;;;;;;;;;;;;8.20;97.16;100319.95;106462;1251;71434;-83
2023/12/12 05:38:16;;;;;;;;;;;;;;;8.30;96.50;100321.06;106432;1256;61212;-84
2023/12/12 05:40:49;;;;;;;;;;;;;;;8.24;96.54;100316.75;106525;1251;61320;-84
2023/12/12 05:43:17;;;;;;;;;;;;;;;8.22;96.68;100321.85;106630;1251;73436;-81
2023/12/12 05:45:50;;;;;;;;;;;;;;;8.27;96.29;100326.51;106545;1257;67556;-84
2023/12/12 05:48:24;;;;;;;;;;;;;;;8.27;96.15;100329.45;106616;1251;72652;-84
2023/12/12 05:50:52;;;;;;;;;;;;;;;8.30;95.49;100330.27;106536;1251;61255;-81
2023/12/12 05:53:27;;;;;;;;;;;;;;;8.30;95.36;100331.91;106569;1251;61326;-81
2023/12/12 05:56:02;;;;;;;;;;;;;;;8.25;95.50;100331.71;106412;1251;75087;-84
2023/12/12 05:58:37;;;;;;;;;;;;;;;8.23;95.85;100339.81;106405;1257;67164;-84
2023/12/12 06:01:05;;;;;;;;;;;;;;;8.25;95.40;100339.34;106468;1256;72706;-84
2023/12/12 06:03:42;;;;;;;;;;;;;;;8.17;95.82;100340.89;106573;1251;61313;-81
2023/12/12 06:06:21;;;;;;;;;;;;;;;8.10;96.39;100342.44;106567;1254;61240;-85
2023/12/12 06:08:54;;;;;;;;;;;;;;;8.18;95.77;100348.20;107002;1253;73364;-86
2023/12/12 06:11:24;;;;;;;;;;;;;;;8.30;94.86;100345.30;106929;1257;67451;-86
2023/12/12 06:14:02;;;;;;;;;;;;;;;8.29;94.71;100350.73;106977;1251;72674;-86
2023/12/12 06:16:38;;;;;;;;;;;;;;;8.17;94.90;100347.48;106937;1251;59952;-81
2023/12/12 06:19:12;;;;;;;;;;;;;;;8.09;95.82;100346.30;106984;1254;61094;-80
2023/12/12 06:21:41;;;;;;;;;;;;;;;8.04;96.30;100351.93;106898;1253;73429;-86
2023/12/12 06:24:16;;;;;;;;;;;;;;;7.99;96.78;100351.27;107150;1253;67162;-86
2023/12/12 06:26:51;;;;;;;;;;;;;;;8.02;96.44;100348.39;106553;1251;72687;-87
2023/12/12 06:29:25;;;;;;;;;;;;;;;8.05;95.94;100347.55;109379;1253;59170;-81
2023/12/12 06:31:54;;;;;;;;;;;;;;;8.07;95.50;100344.94;106893;1251;61129;-81
2023/12/12 06:34:30;;;;;;;;;;;;;;;8.05;95.34;100344.16;107082;1251;74672;-87
2023/12/12 06:37:05;;;;;;;;;;;;;;;8.15;94.51;100349.42;106611;1251;68558;-80
2023/12/12 06:39:39;;;;;;;;;;;;;;;8.26;93.71;100351.11;106751;1251;72735;-81
2023/12/12 06:42:08;;;;;;;;;;;;;;;8.21;94.01;100355.05;106822;1253;61394;-80
2023/12/12 06:44:43;;;;;;;;;;;;;;;8.22;93.86;100351.36;106714;1251;61352;-81
2023/12/12 06:47:19;;;;;;;;;;;;;;;8.22;93.75;100355.45;106648;1251;74878;-86
2023/12/12 06:49:52;;;;;;;;;;;;;;;8.35;92.85;100354.09;106580;1251;67406;-86
2023/12/12 06:52:21;;;;;;;;;;;;;;;8.43;91.94;100363.06;106616;1251;72672;-86
2023/12/12 06:54:56;;;;;;;;;;;;;;;8.39;91.73;100363.31;106793;1251;61306;-86
2023/12/12 06:57:32;;;;;;;;;;;;;;;8.36;91.84;100367.10;106566;1251;61233;-80
2023/12/12 07:00:00;;;;;;;;;;;;;;;8.34;91.99;100369.33;106547;1253;74725;-86
2023/12/12 07:02:33;;;;;;;;;;;;;;;8.32;91.87;100373.55;106626;1257;69086;-80
2023/12/12 07:05:07;;;;;;;;;;;;;;;8.41;90.60;100373.40;106592;1254;71524;-80
2023/12/12 07:07:41;;;;;;;;;;;;;;;8.48;89.87;100376.11;106480;1254;61260;-86
2023/12/12 07:10:09;;;;;;;;;;;;;;;8.47;89.78;100380.23;106590;1253;61304;-86
2023/12/12 07:12:44;;;;;;;;;;;;;;;8.53;89.07;100380.76;106630;1251;72983;-80
2023/12/12 07:15:17;;;;;;;;;;;;;;;8.50;89.36;100380.63;106582;1251;67604;-86
2023/12/12 07:17:51;;;;;;;;;;;;;;;8.40;90.34;100386.14;106626;1251;74883;-86
2023/12/12 07:20:25;;;;;;;;;;;;;;;8.34;91.11;100389.80;106583;1256;61113;-81
2023/12/12 07:22:59;;;;;;;;;;;;;;;8.31;91.34;100391.32;106669;1253;61335;-86
2023/12/12 07:25:32;;;;;;;;;;;;;;;8.37;90.87;100391.56;106643;1251;73358;-82
2023/12/12 07:28:06;;;;;;;;;;;;;;;8.41;90.63;100393.50;106806;1251;68862;-81
2023/12/12 07:30:40;;;;;;;;;;;;;;;8.51;90.21;100389.09;106421;1253;71701;-86
2023/12/12 07:33:14;;;;;;;;;;;;;;;8.51;89.49;100394.20;106406;1251;61254;-81
2023/12/12 07:35:47;;;;;;;;;;;;;;;8.36;91.06;100397.76;106564;1256;61222;-82
2023/12/12 07:38:21;;;;;;;;;;;;;;;8.50;90.43;100397.63;106463;1251;74596;-81
2023/12/12 07:40:55;;;;;;;;;;;;;;;8.59;89.62;100391.02;106396;1255;67128;-81
2023/12/12 07:43:29;;;;;;;;;;;;;;;8.63;88.93;100387.21;106432;1251;75117;-85
2023/12/12 07:46:03;;;;;;;;;;;;;;;8.75;87.99;100391.22;106459;1253;61315;-86
2023/12/12 07:48:36;;;;;;;;;;;;;;;8.76;88.05;100395.87;106597;1254;61227;-86
2023/12/12 07:51:10;;;;;;;;;;;;;;;8.81;87.43;100396.25;106519;1251;74704;-84
2023/12/12 07:53:46;;;;;;;;;;;;;;;8.85;87.01;100392.83;106483;1256;66609;-85
2023/12/12 07:56:21;;;;;;;;;;;;;;;8.89;86.44;100397.23;106555;1254;72471;-86
2023/12/12 07:58:56;;;;;;;;;;;;;;;8.95;85.87;100394.64;106520;1251;61270;-86
2023/12/12 08:01:32;;;;;;;;;;;;;;;8.90;85.91;100397.96;106675;1251;61249;-81
2023/12/12 08:04:07;;;;;;;;;;;;;;;8.65;87.20;100398.92;106426;1251;73378;-81
2023/12/12 08:06:43;;;;;;;;;;;;;;;8.79;86.71;100401.20;106530;1251;67287;-81
2023/12/12 08:09:18;;;;;;;;;;;;;;;8.84;86.29;100402.02;106418;1254;73035;-81
2023/12/12 08:11:53;;;;;;;;;;;;;;;8.81;85.43;100399.58;106416;1256;61564;-86
2023/12/12 08:14:28;;;;;;;;;;;;;;;8.72;84.99;100395.08;106649;1256;61143;-81
2023/12/12 08:17:03;;;;;;;;;;;;;;;8.73;84.22;100391.70;106713;1251;73506;-86
2023/12/12 08:19:38;;;;;;;;;;;;;;;8.59;84.85;100396.41;106592;1251;69447;-86
2023/12/12 08:22:14;;;;;;;;;;;;;;;8.39;86.39;100401.64;106651;1251;72376;-81
2023/12/12 08:24:51;;;;;;;;;;;;;;;8.41;86.32;100402.02;106594;1254;61387;-81
2023/12/12 08:27:27;;;;;;;;;;;;;;;8.51;84.99;100403.45;106798;1253;61285;-81
2023/12/12 08:30:05;;;;;;;;;;;;;;;8.47;84.67;100405.84;106610;1251;73429;-81
2023/12/12 08:32:41;;;;;;;;;;;;;;;8.51;83.73;100402.15;106707;1251;68415;-81
2023/12/12 08:35:16;;;;;;;;;;;;;;;8.51;82.28;100399.21;106779;1253;72695;-84
2023/12/12 08:37:52;;;;;;;;;;;;;;;8.40;82.76;100401.16;106652;1254;62701;-84
2023/12/12 08:40:27;;;;;;;;;;;;;;;8.37;83.01;100403.10;106950;1251;61300;-83
2023/12/12 08:43:02;;;;;;;;;;;;;;;8.28;83.76;100403.16;106806;1251;73351;-84
2023/12/12 08:45:38;;;;;;;;;;;;;;;8.31;83.31;100400.35;106575;1254;68170;-83
2023/12/12 08:48:13;;;;;;;;;;;;;;;8.34;83.08;100394.60;107126;1253;70882;-84
2023/12/12 08:50:50;;;;;;;;;;;;;;;8.41;82.56;100390.67;106871;1251;61374;-83
2023/12/12 08:53:26;;;;;;;;;;;;;;;8.36;83.02;100392.02;106888;1256;61159;-83
2023/12/12 08:56:04;;;;;;;;;;;;;;;8.39;82.85;100389.02;106704;1254;73262;-83
2023/12/12 08:58:39;;;;;;;;;;;;;;;8.36;82.23;100383.81;106879;1257;68346;-83
2023/12/12 09:01:14;;;;;;;;;;;;;;;8.41;81.24;100378.56;106699;1254;71605;-83
2023/12/12 09:03:50;;;;;;;;;;;;;;;8.40;81.17;100372.25;106785;1254;61244;-83
2023/12/12 09:06:25;;;;;;;;;;;;;;;8.38;81.01;100369.40;106778;1256;216019;-84
2023/12/12 09:09:01;;;;;;;;;;;;;;;8.37;81.35;100367.60;107004;1254;77139;-84
2023/12/12 09:11:37;;;;;;;;;;;;;;;8.43;80.63;100364.27;106737;1253;68876;-83
2023/12/12 09:14:12;;;;;;;;;;;;;;;8.51;80.05;100363.31;106855;1251;72639;-84
2023/12/12 09:16:45;;;;;;;;;;;;;;;8.51;79.61;100365.39;106861;1254;61294;-83
2023/12/12 09:19:19;;;;;;;;;;;;;;;8.48;79.45;100361.94;106858;1251;60497;-84
2023/12/12 09:21:54;;;;;;;;;;;;;;;8.45;79.28;100365.79;106776;1252;74690;-83
2023/12/12 09:24:28;;;;;;;;;;;;;;;8.49;78.92;100362.39;106776;1253;68711;-84
2023/12/12 09:27:02;;;;;;;;;;;;;;;8.53;78.20;100363.48;106793;1251;74847;-84
2023/12/12 09:29:36;;;;;;;;;;;;;;;8.50;77.68;100363.59;106789;1256;61266;-84
2023/12/12 09:32:09;;;;;;;;;;;;;;;8.48;78.18;100364.66;106784;1251;61213;-84
2023/12/12 09:34:43;;;;;;;;;;;;;;;8.55;77.78;100360.61;106840;1256;73942;-84
2023/12/12 09:37:17;;;;;;;;;;;;;;;8.59;77.80;100366.05;106730;1251;68692;-84
2023/12/12 09:39:50;;;;;;;;;;;;;;;8.59;77.76;100363.08;106696;1256;72089;-82
2023/12/12 09:42:24;;;;;;;;;;;;;;;8.66;76.95;100369.02;106559;1254;61390;-82
2023/12/12 09:44:59;;;;;;;;;;;;;;;8.64;76.45;100366.95;106458;1254;61141;-83
2023/12/12 09:47:33;;;;;;;;;;;;;;;8.62;75.62;100374.34;106678;1254;73452;-82
2023/12/12 09:50:07;;;;;;;;;;;;;;;8.63;74.46;100371.26;107100;1251;68484;-82
2023/12/12 09:52:41;;;;;;;;;;;;;;;8.57;74.60;100369.71;106653;1251;73115;-83
2023/12/12 09:55:14;;;;;;;;;;;;;;;8.55;74.49;100365.23;106674;1254;61945;-83
2023/12/12 09:57:48;;;;;;;;;;;;;;;8.36;75.35;100361.23;106348;1254;61201;-83
2023/12/12 10:00:22;;;;;;;;;;;;;;;8.23;76.35;100354.90;106267;1259;74635;-83
2023/12/12 10:02:59;;;;;;;;;;;;;;;8.17;77.21;100353.36;106466;1256;67101;-83
2023/12/12 10:05:33;;;;;;;;;;;;;;;8.24;77.32;100353.39;106648;1254;71483;-83
2023/12/12 10:08:08;;;;;;;;;;;;;;;8.33;77.02;100352.55;106526;1254;61187;-83
2023/12/12 10:10:50;;;;;;;;;;;;;;;8.48;76.52;100343.05;106622;1259;61163;-83
2023/12/12 10:16:30;;;;;;;;;;;;;;;8.52;75.57;100330.91;103080;1293;599330;-83
2023/12/12 10:19:04;;;;;;;;;;;;;;;8.60;75.66;100332.72;105755;1267;59680;-79
2023/12/12 10:21:38;;;;;;;;;;;;;;;8.70;75.57;100325.23;105509;1267;59347;-79
2023/12/12 10:24:12;;;;;;;;;;;;;;;8.79;74.66;100319.46;105689;1267;72228;-82
2023/12/12 10:26:45;;;;;;;;;;;;;;;8.82;73.19;100323.00;105709;1266;68368;-81
2023/12/12 10:29:19;;;;;;;;;;;;;;;8.79;72.04;100328.02;105446;1271;206939;-78
2023/12/12 10:31:53;;;;;;;;;;;;;;;8.79;71.40;100325.84;105663;1263;60358;-77
2023/12/12 10:34:27;;;;;;;;;;;;;;;8.81;71.46;100327.48;105826;1264;59820;-78
2023/12/12 10:37:02;;;;;;;;;;;;;;;8.81;71.68;100325.41;106110;1264;72283;-80
2023/12/12 10:39:36;;;;;;;;;;;;;;;8.95;71.08;100329.52;106160;1263;68759;-78
2023/12/12 10:42:09;;;;;;;;;;;;;;;8.96;71.23;100333.76;105921;1268;72997;-81
2023/12/12 10:44:45;;;;;;;;;;;;;;;8.96;71.56;100338.06;105524;1265;59675;-82
2023/12/12 10:47:19;;;;;;;;;;;;;;;8.97;71.50;100337.04;105847;1269;59628;-82
2023/12/12 10:49:56;;;;;;;;;;;;;;;9.01;71.99;100344.73;105846;1263;73156;-78
2023/12/12 10:52:30;;;;;;;;;;;;;;;9.02;71.81;100342.77;105826;1264;68552;-81
2023/12/12 10:55:04;;;;;;;;;;;;;;;8.97;71.59;100345.59;105777;1264;71378;-77
2023/12/12 10:57:42;;;;;;;;;;;;;;;9.03;71.41;100339.61;105922;1264;60321;-78
2023/12/12 11:00:16;;;;;;;;;;;;;;;9.16;70.84;100333.06;106065;1260;59931;-77
2023/12/12 11:02:52;;;;;;;;;;;;;;;9.25;70.29;100329.78;105995;1260;71996;-81
2023/12/12 11:05:27;;;;;;;;;;;;;;;9.30;68.85;100334.26;106015;1260;66108;-81
2023/12/12 11:08:01;;;;;;;;;;;;;;;9.09;69.52;100335.68;106109;1261;71410;-78
2023/12/12 11:10:34;;;;;;;;;;;;;;;9.00;70.42;100337.41;106173;1260;59678;-78
2023/12/12 11:13:08;;;;;;;;;;;;;;;9.12;69.57;100337.48;106012;1260;60219;-82
2023/12/12 11:15:42;;;;;;;;;;;;;;;9.20;69.37;100339.34;106247;1260;73500;-83
2023/12/12 11:18:16;;;;;;;;;;;;;;;9.32;68.68;100341.30;106112;1265;67092;-78
2023/12/12 11:20:50;;;;;;;;;;;;;;;9.54;67.33;100334.95;105914;1260;72701;-78
2023/12/12 11:23:42;;;;;;;;;;;;;;;9.61;66.42;100332.14;105972;1262;59732;-82
2023/12/12 11:26:16;;;;;;;;;;;;;;;9.63;66.76;100342.52;105933;1261;59749;-82
2023/12/12 11:28:50;;;;;;;;;;;;;;;9.81;65.95;100342.30;106080;1260;72341;-78
2023/12/12 11:31:24;;;;;;;;;;;;;;;9.98;65.24;100343.18;105981;1263;68528;-83
2023/12/12 11:34:07;;;;;;;;;;;;;;;9.88;65.79;100344.08;106046;1261;73677;-81
2023/12/12 11:36:47;;;;;;;;;;;;;;;10.08;65.31;100344.24;105855;1260;59634;-81
2023/12/12 11:39:29;;;;;;;;;;;;;;;10.32;63.64;100336.58;106158;1260;61371;-81
2023/12/12 11:42:03;;;;;;;;;;;;;;;10.39;62.89;100337.64;105987;1260;73099;-83
2023/12/12 11:44:46;;;;;;;;;;;;;;;10.34;63.02;100332.53;105976;1261;68370;-82
2023/12/12 11:47:20;;;;;;;;;;;;;;;10.26;63.62;100345.11;105884;1264;72697;-78
2023/12/12 11:50:15;;;;;;;;;;;;;;;10.44;62.89;100345.92;106177;1260;59629;-81
2023/12/12 11:52:49;;;;;;;;;;;;;;;10.43;62.88;100346.27;106075;1260;61913;-78
2023/12/12 11:55:28;;;;;;;;;;;;;;;10.57;62.37;100358.00;106531;1251;72900;-80
2023/12/12 11:58:03;;;;;;;;;;;;;;;10.94;60.12;100357.11;106732;1254;68360;-82
2023/12/12 12:00:37;;;;;;;;;;;;;;;10.80;59.61;100360.30;106422;1251;74939;-82
2023/12/12 12:03:12;;;;;;;;;;;;;;;10.76;59.84;100355.63;106122;1256;60346;-79
2023/12/12 12:05:46;;;;;;;;;;;;;;;10.63;59.62;100349.81;106582;1254;59848;-78
2023/12/12 12:08:22;;;;;;;;;;;;;;;10.68;59.08;100351.69;106520;1253;73009;-78
2023/12/12 12:10:59;;;;;;;;;;;;;;;10.33;59.58;100366.05;106592;1254;68286;-79
2023/12/12 12:13:39;;;;;;;;;;;;;;;10.03;61.26;100370.46;106646;1251;72659;-82
2023/12/12 12:16:13;;;;;;;;;;;;;;;9.77;62.70;100368.56;107105;1251;60827;-78
2023/12/12 12:18:47;;;;;;;;;;;;;;;9.86;62.73;100372.64;106459;1254;60846;-78
2023/12/12 12:21:25;;;;;;;;;;;;;;;9.80;62.32;100376.20;106528;1256;73014;-82
2023/12/12 12:24:02;;;;;;;;;;;;;;;9.94;61.78;100371.20;106576;1257;69835;-81
2023/12/12 12:26:35;;;;;;;;;;;;;;;10.62;58.84;100373.31;106775;1251;71336;-78
